sensor_id;sensor_type;location;lat;lon;timestamp;P1;durP1;ratioP1;P2;durP2;ratioP2
29774;SDS011;16676;51.202;6.774;2023-04-24T00:03:53;4.95;;;3.15;;
29774;SDS011;16676;51.202;6.774;2023-04-24T00:07:56;5.47;;;3.13;;
29774;SDS011;16676;51.202;6.774;2023-04-24T00:11:58;4.65;;;2.65;;
29774;SDS011;16676;51.202;6.774;2023-04-24T00:16:00;5.60;;;2.80;;
29774;SDS011;16676;51.202;6.774;2023-04-24T00:20:04;4.15;;;2.70;;
29774;SDS011;16676;51.202;6.774;2023-04-24T00:24:07;5.80;;;2.97;;
29774;SDS011;16676;51.202;6.774;2023-04-24T00:28:10;5.40;;;2.70;;
29774;SDS011;16676;51.202;6.774;2023-04-24T00:32:12;5.15;;;2.50;;
29774;SDS011;16676;51.202;6.774;2023-04-24T00:36:15;5.35;;;2.90;;
29774;SDS011;16676;51.202;6.774;2023-04-24T00:40:19;4.90;;;2.60;;
29774;SDS011;16676;51.202;6.774;2023-04-24T00:44:21;3.88;;;2.40;;
29774;SDS011;16676;51.202;6.774;2023-04-24T00:48:23;3.88;;;2.50;;
29774;SDS011;16676;51.202;6.774;2023-04-24T00:52:27;3.72;;;2.22;;
29774;SDS011;16676;51.202;6.774;2023-04-24T00:56:31;4.20;;;2.40;;
29774;SDS011;16676;51.202;6.774;2023-04-24T01:00:33;5.07;;;2.83;;
29774;SDS011;16676;51.202;6.774;2023-04-24T01:04:36;4.00;;;2.47;;
29774;SDS011;16676;51.202;6.774;2023-04-24T01:08:40;5.00;;;2.85;;
29774;SDS011;16676;51.202;6.774;2023-04-24T01:12:43;3.55;;;2.42;;
29774;SDS011;16676;51.202;6.774;2023-04-24T01:16:45;5.25;;;2.50;;
29774;SDS011;16676;51.202;6.774;2023-04-24T01:20:47;5.20;;;2.60;;
29774;SDS011;16676;51.202;6.774;2023-04-24T01:24:53;4.75;;;2.63;;
29774;SDS011;16676;51.202;6.774;2023-04-24T01:28:55;3.65;;;2.33;;
29774;SDS011;16676;51.202;6.774;2023-04-24T01:32:57;3.65;;;2.40;;
29774;SDS011;16676;51.202;6.774;2023-04-24T01:37:00;4.72;;;2.95;;
29774;SDS011;16676;51.202;6.774;2023-04-24T01:41:04;4.10;;;2.25;;
29774;SDS011;16676;51.202;6.774;2023-04-24T01:45:06;4.55;;;2.40;;
29774;SDS011;16676;51.202;6.774;2023-04-24T01:49:11;4.35;;;2.17;;
29774;SDS011;16676;51.202;6.774;2023-04-24T01:53:13;4.00;;;2.47;;
29774;SDS011;16676;51.202;6.774;2023-04-24T01:57:17;4.93;;;2.10;;
29774;SDS011;16676;51.202;6.774;2023-04-24T02:01:19;4.55;;;2.30;;
29774;SDS011;16676;51.202;6.774;2023-04-24T02:05:21;3.67;;;2.30;;
29774;SDS011;16676;51.202;6.774;2023-04-24T02:09:23;4.05;;;2.30;;
29774;SDS011;16676;51.202;6.774;2023-04-24T02:13:26;4.22;;;2.50;;
29774;SDS011;16676;51.202;6.774;2023-04-24T02:17:28;3.25;;;2.03;;
29774;SDS011;16676;51.202;6.774;2023-04-24T02:21:30;3.83;;;2.28;;
29774;SDS011;16676;51.202;6.774;2023-04-24T02:25:33;3.88;;;2.13;;
29774;SDS011;16676;51.202;6.774;2023-04-24T02:29:36;3.70;;;2.28;;
29774;SDS011;16676;51.202;6.774;2023-04-24T02:33:38;3.45;;;2.00;;
29774;SDS011;16676;51.202;6.774;2023-04-24T02:37:40;3.40;;;2.20;;
29774;SDS011;16676;51.202;6.774;2023-04-24T02:41:42;2.80;;;1.92;;
29774;SDS011;16676;51.202;6.774;2023-04-24T02:45:45;3.53;;;2.22;;
29774;SDS011;16676;51.202;6.774;2023-04-24T02:49:47;4.47;;;2.25;;
29774;SDS011;16676;51.202;6.774;2023-04-24T02:53:49;3.45;;;2.20;;
29774;SDS011;16676;51.202;6.774;2023-04-24T02:57:51;4.47;;;2.40;;
29774;SDS011;16676;51.202;6.774;2023-04-24T03:01:54;4.47;;;2.42;;
29774;SDS011;16676;51.202;6.774;2023-04-24T03:05:56;2.75;;;1.90;;
29774;SDS011;16676;51.202;6.774;2023-04-24T03:09:58;3.20;;;1.98;;
29774;SDS011;16676;51.202;6.774;2023-04-24T03:14:00;3.30;;;2.05;;
29774;SDS011;16676;51.202;6.774;2023-04-24T03:18:04;3.83;;;2.20;;
29774;SDS011;16676;51.202;6.774;2023-04-24T03:22:06;3.72;;;2.10;;
29774;SDS011;16676;51.202;6.774;2023-04-24T03:26:09;3.22;;;2.10;;
29774;SDS011;16676;51.202;6.774;2023-04-24T03:30:11;2.47;;;1.80;;
29774;SDS011;16676;51.202;6.774;2023-04-24T03:34:14;4.90;;;2.17;;
29774;SDS011;16676;51.202;6.774;2023-04-24T03:38:16;3.10;;;2.35;;
29774;SDS011;16676;51.202;6.774;2023-04-24T03:42:18;2.67;;;2.05;;
29774;SDS011;16676;51.202;6.774;2023-04-24T03:46:20;3.30;;;2.10;;
29774;SDS011;16676;51.202;6.774;2023-04-24T03:50:23;3.05;;;2.00;;
29774;SDS011;16676;51.202;6.774;2023-04-24T03:54:26;2.88;;;2.30;;
29774;SDS011;16676;51.202;6.774;2023-04-24T03:58:28;2.53;;;1.88;;
29774;SDS011;16676;51.202;6.774;2023-04-24T04:02:30;2.85;;;1.80;;
29774;SDS011;16676;51.202;6.774;2023-04-24T04:06:33;3.05;;;2.10;;
29774;SDS011;16676;51.202;6.774;2023-04-24T04:10:36;3.38;;;2.13;;
29774;SDS011;16676;51.202;6.774;2023-04-24T04:14:38;2.75;;;1.98;;
29774;SDS011;16676;51.202;6.774;2023-04-24T04:18:40;3.97;;;1.83;;
29774;SDS011;16676;51.202;6.774;2023-04-24T04:22:43;2.78;;;1.92;;
29774;SDS011;16676;51.202;6.774;2023-04-24T04:26:45;4.82;;;2.22;;
29774;SDS011;16676;51.202;6.774;2023-04-24T04:30:47;3.85;;;1.90;;
29774;SDS011;16676;51.202;6.774;2023-04-24T04:34:49;4.78;;;1.98;;
29774;SDS011;16676;51.202;6.774;2023-04-24T04:38:54;3.83;;;1.92;;
29774;SDS011;16676;51.202;6.774;2023-04-24T04:42:56;6.60;;;2.10;;
29774;SDS011;16676;51.202;6.774;2023-04-24T04:46:59;6.30;;;1.80;;
29774;SDS011;16676;51.202;6.774;2023-04-24T04:51:04;5.05;;;1.80;;
29774;SDS011;16676;51.202;6.774;2023-04-24T04:55:07;3.85;;;2.08;;
29774;SDS011;16676;51.202;6.774;2023-04-24T04:59:10;2.83;;;1.70;;
29774;SDS011;16676;51.202;6.774;2023-04-24T05:03:12;4.32;;;1.63;;
29774;SDS011;16676;51.202;6.774;2023-04-24T05:07:14;6.03;;;2.13;;
29774;SDS011;16676;51.202;6.774;2023-04-24T05:11:17;3.97;;;2.03;;
29774;SDS011;16676;51.202;6.774;2023-04-24T05:15:19;7.13;;;1.90;;
29774;SDS011;16676;51.202;6.774;2023-04-24T05:19:21;3.88;;;1.60;;
29774;SDS011;16676;51.202;6.774;2023-04-24T05:23:23;3.13;;;1.83;;
29774;SDS011;16676;51.202;6.774;2023-04-24T05:27:26;6.00;;;2.15;;
29774;SDS011;16676;51.202;6.774;2023-04-24T05:31:28;4.15;;;1.80;;
29774;SDS011;16676;51.202;6.774;2023-04-24T05:35:31;2.53;;;1.40;;
29774;SDS011;16676;51.202;6.774;2023-04-24T05:39:32;4.18;;;1.67;;
29774;SDS011;16676;51.202;6.774;2023-04-24T05:43:36;3.47;;;1.77;;
29774;SDS011;16676;51.202;6.774;2023-04-24T05:47:38;2.67;;;1.67;;
29774;SDS011;16676;51.202;6.774;2023-04-24T05:51:40;3.05;;;1.67;;
29774;SDS011;16676;51.202;6.774;2023-04-24T05:55:41;3.53;;;1.50;;
29774;SDS011;16676;51.202;6.774;2023-04-24T05:59:45;2.55;;;1.60;;
29774;SDS011;16676;51.202;6.774;2023-04-24T06:03:47;4.50;;;2.22;;
29774;SDS011;16676;51.202;6.774;2023-04-24T06:07:48;6.15;;;2.80;;
29774;SDS011;16676;51.202;6.774;2023-04-24T06:11:50;4.20;;;2.90;;
29774;SDS011;16676;51.202;6.774;2023-04-24T06:15:55;4.13;;;3.03;;
29774;SDS011;16676;51.202;6.774;2023-04-24T06:19:56;4.80;;;2.55;;
29774;SDS011;16676;51.202;6.774;2023-04-24T06:23:58;6.18;;;2.15;;
29774;SDS011;16676;51.202;6.774;2023-04-24T06:28:00;6.68;;;2.17;;
29774;SDS011;16676;51.202;6.774;2023-04-24T06:32:04;3.92;;;2.17;;
29774;SDS011;16676;51.202;6.774;2023-04-24T06:36:06;4.57;;;1.95;;
29774;SDS011;16676;51.202;6.774;2023-04-24T06:40:08;4.93;;;1.58;;
29774;SDS011;16676;51.202;6.774;2023-04-24T06:44:10;3.33;;;1.80;;
29774;SDS011;16676;51.202;6.774;2023-04-24T06:48:16;4.90;;;1.70;;
29774;SDS011;16676;51.202;6.774;2023-04-24T06:52:18;3.22;;;1.90;;
29774;SDS011;16676;51.202;6.774;2023-04-24T06:56:20;5.60;;;1.38;;
29774;SDS011;16676;51.202;6.774;2023-04-24T07:00:22;5.15;;;1.95;;
29774;SDS011;16676;51.202;6.774;2023-04-24T07:04:26;5.47;;;1.73;;
29774;SDS011;16676;51.202;6.774;2023-04-24T07:08:28;5.80;;;1.70;;
29774;SDS011;16676;51.202;6.774;2023-04-24T07:12:31;3.78;;;1.52;;
29774;SDS011;16676;51.202;6.774;2023-04-24T07:16:33;2.10;;;1.30;;
29774;SDS011;16676;51.202;6.774;2023-04-24T07:20:36;3.72;;;1.42;;
29774;SDS011;16676;51.202;6.774;2023-04-24T07:24:38;6.25;;;1.50;;
29774;SDS011;16676;51.202;6.774;2023-04-24T07:28:40;4.47;;;1.42;;
29774;SDS011;16676;51.202;6.774;2023-04-24T07:32:42;5.30;;;1.35;;
29774;SDS011;16676;51.202;6.774;2023-04-24T07:36:45;3.85;;;1.45;;
29774;SDS011;16676;51.202;6.774;2023-04-24T07:40:47;3.80;;;1.20;;
29774;SDS011;16676;51.202;6.774;2023-04-24T07:44:50;5.30;;;1.40;;
29774;SDS011;16676;51.202;6.774;2023-04-24T07:48:52;3.92;;;1.30;;
29774;SDS011;16676;51.202;6.774;2023-04-24T07:52:55;4.57;;;1.50;;
29774;SDS011;16676;51.202;6.774;2023-04-24T07:56:57;3.90;;;1.20;;
29774;SDS011;16676;51.202;6.774;2023-04-24T08:00:59;1.08;;;0.85;;
29774;SDS011;16676;51.202;6.774;2023-04-24T08:05:01;3.08;;;1.20;;
29774;SDS011;16676;51.202;6.774;2023-04-24T08:09:05;2.10;;;1.10;;
29774;SDS011;16676;51.202;6.774;2023-04-24T08:13:07;3.28;;;1.02;;
29774;SDS011;16676;51.202;6.774;2023-04-24T08:17:09;3.38;;;0.77;;
29774;SDS011;16676;51.202;6.774;2023-04-24T08:21:11;4.65;;;1.10;;
29774;SDS011;16676;51.202;6.774;2023-04-24T08:25:18;2.22;;;1.00;;
29774;SDS011;16676;51.202;6.774;2023-04-24T08:29:20;3.80;;;1.20;;
29774;SDS011;16676;51.202;6.774;2023-04-24T08:33:22;1.60;;;0.77;;
29774;SDS011;16676;51.202;6.774;2023-04-24T08:37:25;3.78;;;1.08;;
29774;SDS011;16676;51.202;6.774;2023-04-24T08:41:29;5.13;;;0.80;;
29774;SDS011;16676;51.202;6.774;2023-04-24T08:45:32;3.58;;;0.85;;
29774;SDS011;16676;51.202;6.774;2023-04-24T08:49:34;2.80;;;0.75;;
29774;SDS011;16676;51.202;6.774;2023-04-24T08:53:38;3.05;;;0.95;;
29774;SDS011;16676;51.202;6.774;2023-04-24T08:57:43;2.50;;;0.77;;
29774;SDS011;16676;51.202;6.774;2023-04-24T09:01:46;1.95;;;0.90;;
29774;SDS011;16676;51.202;6.774;2023-04-24T09:05:52;1.08;;;0.85;;
29774;SDS011;16676;51.202;6.774;2023-04-24T09:09:55;3.45;;;0.80;;
29774;SDS011;16676;51.202;6.774;2023-04-24T09:13:59;1.35;;;0.88;;
29774;SDS011;16676;51.202;6.774;2023-04-24T09:18:01;0.90;;;0.57;;
29774;SDS011;16676;51.202;6.774;2023-04-24T09:22:04;1.05;;;0.80;;
29774;SDS011;16676;51.202;6.774;2023-04-24T09:26:06;0.82;;;0.70;;
29774;SDS011;16676;51.202;6.774;2023-04-24T09:30:12;2.75;;;0.90;;
29774;SDS011;16676;51.202;6.774;2023-04-24T09:34:18;1.23;;;0.85;;
29774;SDS011;16676;51.202;6.774;2023-04-24T09:38:30;1.33;;;0.90;;
29774;SDS011;16676;51.202;6.774;2023-04-24T09:42:33;1.50;;;0.90;;
29774;SDS011;16676;51.202;6.774;2023-04-24T09:46:36;1.63;;;0.80;;
29774;SDS011;16676;51.202;6.774;2023-04-24T09:50:38;4.93;;;0.80;;
29774;SDS011;16676;51.202;6.774;2023-04-24T09:54:40;3.83;;;0.70;;
29774;SDS011;16676;51.202;6.774;2023-04-24T09:58:42;1.00;;;0.80;;
29774;SDS011;16676;51.202;6.774;2023-04-24T10:02:46;3.05;;;0.85;;
29774;SDS011;16676;51.202;6.774;2023-04-24T10:06:52;2.97;;;1.00;;
29774;SDS011;16676;51.202;6.774;2023-04-24T10:10:55;1.00;;;0.80;;
29774;SDS011;16676;51.202;6.774;2023-04-24T10:14:57;7.03;;;1.10;;
29774;SDS011;16676;51.202;6.774;2023-04-24T10:19:03;1.10;;;0.93;;
29774;SDS011;16676;51.202;6.774;2023-04-24T10:23:05;3.78;;;1.15;;
29774;SDS011;16676;51.202;6.774;2023-04-24T10:27:07;2.63;;;0.90;;
29774;SDS011;16676;51.202;6.774;2023-04-24T10:31:10;3.20;;;0.80;;
29774;SDS011;16676;51.202;6.774;2023-04-24T10:35:15;0.73;;;0.73;;
29774;SDS011;16676;51.202;6.774;2023-04-24T10:39:19;1.30;;;0.73;;
29774;SDS011;16676;51.202;6.774;2023-04-24T10:43:22;4.10;;;1.00;;
29774;SDS011;16676;51.202;6.774;2023-04-24T10:47:24;1.58;;;0.70;;
29774;SDS011;16676;51.202;6.774;2023-04-24T10:51:42;0.73;;;0.70;;
29774;SDS011;16676;51.202;6.774;2023-04-24T10:55:47;1.13;;;0.70;;
29774;SDS011;16676;51.202;6.774;2023-04-24T10:59:51;7.13;;;1.00;;
29774;SDS011;16676;51.202;6.774;2023-04-24T11:04:11;0.68;;;0.60;;
29774;SDS011;16676;51.202;6.774;2023-04-24T11:08:15;1.13;;;0.70;;
29774;SDS011;16676;51.202;6.774;2023-04-24T11:12:22;1.92;;;0.80;;
29774;SDS011;16676;51.202;6.774;2023-04-24T11:16:28;1.30;;;0.80;;
29774;SDS011;16676;51.202;6.774;2023-04-24T11:20:32;3.20;;;1.23;;
29774;SDS011;16676;51.202;6.774;2023-04-24T11:24:38;5.05;;;1.13;;
29774;SDS011;16676;51.202;6.774;2023-04-24T11:28:45;2.92;;;1.52;;
29774;SDS011;16676;51.202;6.774;2023-04-24T11:32:48;5.32;;;1.40;;
29774;SDS011;16676;51.202;6.774;2023-04-24T11:36:52;2.30;;;1.23;;
29774;SDS011;16676;51.202;6.774;2023-04-24T11:40:56;5.15;;;1.80;;
29774;SDS011;16676;51.202;6.774;2023-04-24T11:44:59;9.88;;;3.67;;
29774;SDS011;16676;51.202;6.774;2023-04-24T11:49:02;9.55;;;4.10;;
29774;SDS011;16676;51.202;6.774;2023-04-24T11:53:04;13.30;;;5.65;;
29774;SDS011;16676;51.202;6.774;2023-04-24T11:57:07;14.82;;;6.35;;
29774;SDS011;16676;51.202;6.774;2023-04-24T12:01:09;20.25;;;8.48;;
29774;SDS011;16676;51.202;6.774;2023-04-24T12:05:18;27.35;;;9.35;;
29774;SDS011;16676;51.202;6.774;2023-04-24T12:09:20;24.25;;;10.45;;
29774;SDS011;16676;51.202;6.774;2023-04-24T12:13:24;23.17;;;11.00;;
29774;SDS011;16676;51.202;6.774;2023-04-24T12:17:27;22.40;;;11.23;;
29774;SDS011;16676;51.202;6.774;2023-04-24T12:21:31;25.65;;;12.30;;
29774;SDS011;16676;51.202;6.774;2023-04-24T12:25:33;24.92;;;12.32;;
29774;SDS011;16676;51.202;6.774;2023-04-24T12:29:37;32.03;;;14.30;;
29774;SDS011;16676;51.202;6.774;2023-04-24T12:33:51;31.95;;;14.00;;
29774;SDS011;16676;51.202;6.774;2023-04-24T12:37:53;27.42;;;13.40;;
29774;SDS011;16676;51.202;6.774;2023-04-24T12:41:56;28.02;;;13.63;;
29774;SDS011;16676;51.202;6.774;2023-04-24T12:45:59;26.70;;;12.32;;
29774;SDS011;16676;51.202;6.774;2023-04-24T12:50:01;25.70;;;12.10;;
29774;SDS011;16676;51.202;6.774;2023-04-24T12:54:04;31.60;;;13.68;;
29774;SDS011;16676;51.202;6.774;2023-04-24T12:58:06;35.50;;;14.80;;
29774;SDS011;16676;51.202;6.774;2023-04-24T13:02:09;29.50;;;13.73;;
29774;SDS011;16676;51.202;6.774;2023-04-24T13:06:12;32.10;;;14.02;;
29774;SDS011;16676;51.202;6.774;2023-04-24T13:10:14;24.42;;;12.02;;
29774;SDS011;16676;51.202;6.774;2023-04-24T13:14:16;27.77;;;13.45;;
29774;SDS011;16676;51.202;6.774;2023-04-24T13:18:19;30.33;;;12.23;;
29774;SDS011;16676;51.202;6.774;2023-04-24T13:22:21;24.80;;;12.07;;
29774;SDS011;16676;51.202;6.774;2023-04-24T13:26:23;25.85;;;12.15;;
29774;SDS011;16676;51.202;6.774;2023-04-24T13:30:25;22.27;;;11.32;;
29774;SDS011;16676;51.202;6.774;2023-04-24T13:34:28;24.13;;;10.82;;
29774;SDS011;16676;51.202;6.774;2023-04-24T13:38:30;24.65;;;10.43;;
29774;SDS011;16676;51.202;6.774;2023-04-24T13:42:32;22.45;;;10.30;;
29774;SDS011;16676;51.202;6.774;2023-04-24T13:46:34;22.65;;;10.70;;
29774;SDS011;16676;51.202;6.774;2023-04-24T13:50:37;27.17;;;12.15;;
29774;SDS011;16676;51.202;6.774;2023-04-24T13:54:39;23.60;;;11.13;;
29774;SDS011;16676;51.202;6.774;2023-04-24T13:58:41;25.60;;;9.95;;
29774;SDS011;16676;51.202;6.774;2023-04-24T14:02:43;21.55;;;9.70;;
29774;SDS011;16676;51.202;6.774;2023-04-24T14:06:46;21.02;;;9.75;;
29774;SDS011;16676;51.202;6.774;2023-04-24T14:10:50;20.23;;;9.43;;
29774;SDS011;16676;51.202;6.774;2023-04-24T14:14:52;21.38;;;8.77;;
29774;SDS011;16676;51.202;6.774;2023-04-24T14:18:53;19.30;;;8.75;;
29774;SDS011;16676;51.202;6.774;2023-04-24T14:22:57;16.52;;;8.35;;
29774;SDS011;16676;51.202;6.774;2023-04-24T14:26:59;15.32;;;8.05;;
29774;SDS011;16676;51.202;6.774;2023-04-24T14:31:01;21.05;;;10.85;;
29774;SDS011;16676;51.202;6.774;2023-04-24T14:35:04;16.98;;;8.63;;
29774;SDS011;16676;51.202;6.774;2023-04-24T14:39:08;17.58;;;7.75;;
29774;SDS011;16676;51.202;6.774;2023-04-24T14:43:11;16.25;;;7.80;;
29774;SDS011;16676;51.202;6.774;2023-04-24T14:47:13;19.33;;;8.23;;
29774;SDS011;16676;51.202;6.774;2023-04-24T14:51:15;15.55;;;8.23;;
29774;SDS011;16676;51.202;6.774;2023-04-24T14:55:18;18.00;;;8.02;;
29774;SDS011;16676;51.202;6.774;2023-04-24T14:59:20;16.08;;;7.15;;
29774;SDS011;16676;51.202;6.774;2023-04-24T15:03:22;13.98;;;6.85;;
29774;SDS011;16676;51.202;6.774;2023-04-24T15:07:24;17.90;;;7.55;;
29774;SDS011;16676;51.202;6.774;2023-04-24T15:11:27;13.02;;;6.35;;
29774;SDS011;16676;51.202;6.774;2023-04-24T15:15:29;15.18;;;6.25;;
29774;SDS011;16676;51.202;6.774;2023-04-24T15:19:31;13.73;;;6.72;;
29774;SDS011;16676;51.202;6.774;2023-04-24T15:23:33;13.45;;;6.80;;
29774;SDS011;16676;51.202;6.774;2023-04-24T15:27:40;13.20;;;6.40;;
29774;SDS011;16676;51.202;6.774;2023-04-24T15:31:42;14.95;;;6.90;;
29774;SDS011;16676;51.202;6.774;2023-04-24T15:35:44;11.73;;;5.68;;
29774;SDS011;16676;51.202;6.774;2023-04-24T15:39:47;11.68;;;6.20;;
29774;SDS011;16676;51.202;6.774;2023-04-24T15:43:50;12.50;;;6.82;;
29774;SDS011;16676;51.202;6.774;2023-04-24T15:47:52;16.17;;;7.07;;
29774;SDS011;16676;51.202;6.774;2023-04-24T15:51:53;14.55;;;8.50;;
29774;SDS011;16676;51.202;6.774;2023-04-24T15:55:55;18.58;;;9.05;;
29774;SDS011;16676;51.202;6.774;2023-04-24T15:59:59;15.73;;;8.38;;
29774;SDS011;16676;51.202;6.774;2023-04-24T16:04:00;15.82;;;8.02;;
29774;SDS011;16676;51.202;6.774;2023-04-24T16:08:02;14.90;;;6.95;;
29774;SDS011;16676;51.202;6.774;2023-04-24T16:12:04;12.90;;;6.63;;
29774;SDS011;16676;51.202;6.774;2023-04-24T16:16:08;12.25;;;5.30;;
29774;SDS011;16676;51.202;6.774;2023-04-24T16:20:10;9.73;;;5.03;;
29774;SDS011;16676;51.202;6.774;2023-04-24T16:24:12;9.70;;;4.65;;
29774;SDS011;16676;51.202;6.774;2023-04-24T16:28:14;7.00;;;4.03;;
29774;SDS011;16676;51.202;6.774;2023-04-24T16:32:17;6.28;;;3.33;;
29774;SDS011;16676;51.202;6.774;2023-04-24T16:36:19;5.97;;;3.20;;
29774;SDS011;16676;51.202;6.774;2023-04-24T16:40:21;5.55;;;2.70;;
29774;SDS011;16676;51.202;6.774;2023-04-24T16:44:23;5.55;;;2.40;;
29774;SDS011;16676;51.202;6.774;2023-04-24T16:48:27;5.47;;;2.58;;
29774;SDS011;16676;51.202;6.774;2023-04-24T16:52:29;5.05;;;2.13;;
29774;SDS011;16676;51.202;6.774;2023-04-24T16:56:31;8.27;;;2.60;;
29774;SDS011;16676;51.202;6.774;2023-04-24T17:00:32;4.75;;;1.88;;
29774;SDS011;16676;51.202;6.774;2023-04-24T17:04:37;6.28;;;2.20;;
29774;SDS011;16676;51.202;6.774;2023-04-24T17:08:39;3.40;;;1.65;;
29774;SDS011;16676;51.202;6.774;2023-04-24T17:12:40;6.22;;;1.77;;
29774;SDS011;16676;51.202;6.774;2023-04-24T17:16:42;4.90;;;2.00;;
29774;SDS011;16676;51.202;6.774;2023-04-24T17:20:46;3.60;;;1.55;;
29774;SDS011;16676;51.202;6.774;2023-04-24T17:24:48;6.22;;;1.98;;
29774;SDS011;16676;51.202;6.774;2023-04-24T17:28:50;2.78;;;1.55;;
29774;SDS011;16676;51.202;6.774;2023-04-24T17:32:53;2.53;;;1.23;;
29774;SDS011;16676;51.202;6.774;2023-04-24T17:36:56;4.07;;;1.30;;
29774;SDS011;16676;51.202;6.774;2023-04-24T17:40:59;3.28;;;1.23;;
29774;SDS011;16676;51.202;6.774;2023-04-24T17:45:01;5.97;;;1.45;;
29774;SDS011;16676;51.202;6.774;2023-04-24T17:49:03;3.70;;;1.60;;
29774;SDS011;16676;51.202;6.774;2023-04-24T17:53:06;8.60;;;3.83;;
29774;SDS011;16676;51.202;6.774;2023-04-24T17:57:08;28.15;;;13.10;;
29774;SDS011;16676;51.202;6.774;2023-04-24T18:01:10;81.57;;;38.67;;
29774;SDS011;16676;51.202;6.774;2023-04-24T18:05:12;108.90;;;54.17;;
29774;SDS011;16676;51.202;6.774;2023-04-24T18:09:15;133.02;;;65.57;;
29774;SDS011;16676;51.202;6.774;2023-04-24T18:13:19;132.82;;;68.50;;
29774;SDS011;16676;51.202;6.774;2023-04-24T18:17:22;135.43;;;68.75;;
29774;SDS011;16676;51.202;6.774;2023-04-24T18:21:24;131.18;;;67.15;;
29774;SDS011;16676;51.202;6.774;2023-04-24T18:25:28;129.60;;;69.00;;
29774;SDS011;16676;51.202;6.774;2023-04-24T18:29:31;136.13;;;66.72;;
29774;SDS011;16676;51.202;6.774;2023-04-24T18:33:33;131.02;;;67.32;;
29774;SDS011;16676;51.202;6.774;2023-04-24T18:37:35;127.68;;;66.03;;
29774;SDS011;16676;51.202;6.774;2023-04-24T18:41:38;124.85;;;64.07;;
29774;SDS011;16676;51.202;6.774;2023-04-24T18:45:40;126.97;;;63.60;;
29774;SDS011;16676;51.202;6.774;2023-04-24T18:49:42;126.15;;;66.30;;
29774;SDS011;16676;51.202;6.774;2023-04-24T18:53:44;125.82;;;61.13;;
29774;SDS011;16676;51.202;6.774;2023-04-24T18:57:48;124.40;;;62.03;;
29774;SDS011;16676;51.202;6.774;2023-04-24T19:01:50;122.32;;;62.53;;
29774;SDS011;16676;51.202;6.774;2023-04-24T19:05:52;108.05;;;56.58;;
29774;SDS011;16676;51.202;6.774;2023-04-24T19:09:54;111.97;;;56.47;;
29774;SDS011;16676;51.202;6.774;2023-04-24T19:13:57;108.65;;;56.80;;
29774;SDS011;16676;51.202;6.774;2023-04-24T19:18:02;107.37;;;55.57;;
29774;SDS011;16676;51.202;6.774;2023-04-24T19:22:04;98.03;;;49.75;;
29774;SDS011;16676;51.202;6.774;2023-04-24T19:26:06;94.85;;;47.38;;
29774;SDS011;16676;51.202;6.774;2023-04-24T19:30:10;81.20;;;40.67;;
29774;SDS011;16676;51.202;6.774;2023-04-24T19:34:12;70.88;;;36.58;;
29774;SDS011;16676;51.202;6.774;2023-04-24T19:38:14;65.13;;;33.35;;
29774;SDS011;16676;51.202;6.774;2023-04-24T19:42:16;59.00;;;30.73;;
29774;SDS011;16676;51.202;6.774;2023-04-24T19:46:20;58.20;;;30.10;;
29774;SDS011;16676;51.202;6.774;2023-04-24T19:50:22;51.70;;;25.83;;
29774;SDS011;16676;51.202;6.774;2023-04-24T19:54:24;47.95;;;25.42;;
29774;SDS011;16676;51.202;6.774;2023-04-24T19:58:26;51.58;;;25.08;;
29774;SDS011;16676;51.202;6.774;2023-04-24T20:02:31;49.60;;;23.77;;
29774;SDS011;16676;51.202;6.774;2023-04-24T20:06:32;48.88;;;23.20;;
29774;SDS011;16676;51.202;6.774;2023-04-24T20:10:35;49.08;;;21.67;;
29774;SDS011;16676;51.202;6.774;2023-04-24T20:14:37;41.50;;;20.85;;
29774;SDS011;16676;51.202;6.774;2023-04-24T20:18:40;39.13;;;20.10;;
29774;SDS011;16676;51.202;6.774;2023-04-24T20:22:42;37.88;;;20.05;;
29774;SDS011;16676;51.202;6.774;2023-04-24T20:26:44;36.88;;;18.88;;
29774;SDS011;16676;51.202;6.774;2023-04-24T20:30:46;34.90;;;18.15;;
29774;SDS011;16676;51.202;6.774;2023-04-24T20:34:49;36.40;;;18.17;;
29774;SDS011;16676;51.202;6.774;2023-04-24T20:38:51;34.40;;;17.95;;
29774;SDS011;16676;51.202;6.774;2023-04-24T20:42:53;33.00;;;16.60;;
29774;SDS011;16676;51.202;6.774;2023-04-24T20:46:56;33.80;;;16.73;;
29774;SDS011;16676;51.202;6.774;2023-04-24T20:51:00;32.92;;;16.75;;
29774;SDS011;16676;51.202;6.774;2023-04-24T20:55:01;32.05;;;16.25;;
29774;SDS011;16676;51.202;6.774;2023-04-24T20:59:04;33.13;;;16.65;;
29774;SDS011;16676;51.202;6.774;2023-04-24T21:03:06;31.92;;;16.52;;
29774;SDS011;16676;51.202;6.774;2023-04-24T21:07:09;31.15;;;15.82;;
29774;SDS011;16676;51.202;6.774;2023-04-24T21:11:12;30.65;;;15.15;;
29774;SDS011;16676;51.202;6.774;2023-04-24T21:15:14;25.05;;;13.90;;
29774;SDS011;16676;51.202;6.774;2023-04-24T21:19:16;26.92;;;13.30;;
29774;SDS011;16676;51.202;6.774;2023-04-24T21:23:20;27.17;;;13.48;;
29774;SDS011;16676;51.202;6.774;2023-04-24T21:27:22;25.33;;;12.82;;
29774;SDS011;16676;51.202;6.774;2023-04-24T21:31:24;22.25;;;11.98;;
29774;SDS011;16676;51.202;6.774;2023-04-24T21:35:26;26.13;;;11.52;;
29774;SDS011;16676;51.202;6.774;2023-04-24T21:39:29;23.48;;;12.10;;
29774;SDS011;16676;51.202;6.774;2023-04-24T21:43:31;21.50;;;11.30;;
29774;SDS011;16676;51.202;6.774;2023-04-24T21:47:33;25.02;;;11.80;;
29774;SDS011;16676;51.202;6.774;2023-04-24T21:51:35;22.80;;;10.68;;
29774;SDS011;16676;51.202;6.774;2023-04-24T21:55:38;23.50;;;11.02;;
29774;SDS011;16676;51.202;6.774;2023-04-24T21:59:40;20.55;;;10.23;;
29774;SDS011;16676;51.202;6.774;2023-04-24T22:03:42;22.52;;;10.82;;
29774;SDS011;16676;51.202;6.774;2023-04-24T22:07:44;19.50;;;10.05;;
29774;SDS011;16676;51.202;6.774;2023-04-24T22:11:48;20.85;;;10.02;;
29774;SDS011;16676;51.202;6.774;2023-04-24T22:15:50;20.10;;;9.55;;
29774;SDS011;16676;51.202;6.774;2023-04-24T22:19:52;19.15;;;9.05;;
29774;SDS011;16676;51.202;6.774;2023-04-24T22:23:54;16.83;;;8.95;;
29774;SDS011;16676;51.202;6.774;2023-04-24T22:27:57;18.73;;;9.13;;
29774;SDS011;16676;51.202;6.774;2023-04-24T22:31:59;16.92;;;8.40;;
29774;SDS011;16676;51.202;6.774;2023-04-24T22:36:01;17.45;;;8.43;;
29774;SDS011;16676;51.202;6.774;2023-04-24T22:40:03;15.32;;;8.20;;
29774;SDS011;16676;51.202;6.774;2023-04-24T22:44:08;15.85;;;7.72;;
29774;SDS011;16676;51.202;6.774;2023-04-24T22:48:11;14.90;;;7.63;;
29774;SDS011;16676;51.202;6.774;2023-04-24T22:52:13;13.98;;;7.78;;
29774;SDS011;16676;51.202;6.774;2023-04-24T22:56:16;14.40;;;6.93;;
29774;SDS011;16676;51.202;6.774;2023-04-24T23:00:19;13.55;;;7.40;;
29774;SDS011;16676;51.202;6.774;2023-04-24T23:04:22;13.32;;;7.00;;
29774;SDS011;16676;51.202;6.774;2023-04-24T23:08:24;14.07;;;7.82;;
29774;SDS011;16676;51.202;6.774;2023-04-24T23:12:25;11.95;;;7.10;;
29774;SDS011;16676;51.202;6.774;2023-04-24T23:16:29;12.75;;;7.05;;
29774;SDS011;16676;51.202;6.774;2023-04-24T23:20:32;12.18;;;6.82;;
29774;SDS011;16676;51.202;6.774;2023-04-24T23:24:34;11.23;;;6.32;;
29774;SDS011;16676;51.202;6.774;2023-04-24T23:28:36;9.60;;;6.13;;
29774;SDS011;16676;51.202;6.774;2023-04-24T23:32:41;11.68;;;5.97;;
29774;SDS011;16676;51.202;6.774;2023-04-24T23:36:43;11.20;;;6.28;;
29774;SDS011;16676;51.202;6.774;2023-04-24T23:40:45;10.18;;;5.53;;
29774;SDS011;16676;51.202;6.774;2023-04-24T23:44:49;9.60;;;5.47;;
29774;SDS011;16676;51.202;6.774;2023-04-24T23:48:53;12.25;;;5.43;;
29774;SDS011;16676;51.202;6.774;2023-04-24T23:52:54;10.13;;;6.05;;
29774;SDS011;16676;51.202;6.774;2023-04-24T23:56:56;10.85;;;5.60;;
